createdAt,value
2023-05-18T21:19:51.391Z,99.90
2023-05-18T21:22:19.306Z,96.00
2023-05-18T21:24:46.570Z,96.00
2023-05-18T21:27:13.714Z,96.30
2023-05-18T21:29:40.963Z,96.90
2023-05-18T21:32:08.398Z,96.80
2023-05-18T21:34:35.669Z,97.00
2023-05-18T21:37:03.074Z,97.30
2023-05-18T21:39:30.638Z,97.10
2023-05-18T21:41:57.911Z,97.30
2023-05-18T21:44:25.042Z,96.60
2023-05-18T21:46:55.519Z,96.90
2023-05-18T21:49:22.755Z,96.70
2023-05-18T21:51:50.027Z,96.80
2023-05-18T21:54:17.180Z,97.10
2023-05-18T21:56:44.371Z,97.20
2023-05-18T21:59:11.521Z,97.30
2023-05-18T22:01:38.826Z,97.40
2023-05-18T22:04:06.218Z,97.60
2023-05-18T22:06:33.543Z,97.90
2023-05-18T22:09:00.742Z,98.20
2023-05-18T22:11:27.949Z,98.00
2023-05-18T22:13:55.186Z,97.90
2023-05-18T22:16:22.436Z,97.60
2023-05-18T22:18:49.717Z,97.30
2023-05-18T22:21:16.801Z,97.20
2023-05-18T22:23:43.950Z,96.90
2023-05-18T22:26:12.480Z,96.50
2023-05-18T22:28:39.773Z,95.90
2023-05-18T22:31:07.272Z,96.50
2023-05-18T22:33:34.685Z,96.10
2023-05-18T22:36:03.032Z,95.80
2023-05-18T22:38:30.258Z,95.80
2023-05-18T22:40:57.526Z,95.70
2023-05-18T22:43:25.324Z,95.70
2023-05-18T22:45:52.540Z,95.50
2023-05-18T22:48:19.742Z,95.60
2023-05-18T22:50:47.077Z,95.80
2023-05-18T22:53:14.484Z,96.40
2023-05-18T22:55:41.736Z,96.70
2023-05-18T22:58:09.004Z,96.40
2023-05-18T23:00:36.764Z,96.40
2023-05-18T23:03:04.366Z,96.20
2023-05-18T23:05:32.886Z,95.80
2023-05-18T23:08:00.201Z,95.70
2023-05-18T23:10:27.462Z,95.70
2023-05-18T23:12:58.621Z,95.40
2023-05-18T23:15:26.200Z,95.10
2023-05-18T23:17:54.990Z,95.10
2023-05-18T23:20:26.341Z,95.10
2023-05-18T23:22:53.590Z,94.80
2023-05-18T23:25:21.411Z,95.10
2023-05-18T23:27:48.665Z,94.90
2023-05-18T23:30:16.297Z,95.20
2023-05-18T23:32:43.761Z,95.30
2023-05-18T23:35:13.884Z,95.30
2023-05-18T23:37:42.547Z,95.20
2023-05-18T23:40:13.325Z,94.90
2023-05-18T23:42:41.138Z,95.10
2023-05-18T23:45:09.210Z,95.30
2023-05-18T23:47:36.732Z,95.20
2023-05-18T23:50:04.376Z,94.90
2023-05-18T23:52:34.175Z,94.90
2023-05-18T23:55:03.116Z,94.70
2023-05-18T23:57:31.841Z,94.90
2023-05-18T23:59:59.316Z,94.90
